Seneca, SC (29679)

8:29 AM EDT on September 27, 2016 (GMT -0400)
KE4OGG-Seneca | | Change Station

Elev 958 ft 34.68 °N, 82.95 °W | Updated 28 seconds ago

Rain
Rain
69.1 °F
Feels Like 69.1 °F
N
0.0
Wind Variable Wind from South
Gusts 0.0 mph

Today
High -- | Low -- °F
--% Chance of Precip.
Yesterday
High -- | Low -- °F
Precip. -- in
Pressure 30.00 in
Visibility 10.0 miles
Clouds Mostly Cloudy 2400 ft
Overcast 9500 ft
Dew Point 68 °F
Humidity 96%
Rainfall 0.00 in
Snow Depth Not available.
7:23 AM 7:20 PM
Waning Crescent, 12% visible
SPECI KCEU 271222Z AUTO 00000KT 10SM BKN024 OVC095 22/19 A3000 RMK AO2 T02170194
Pressure 30.00 in
Visibility 10.0 miles
Clouds Mostly Cloudy 2400 ft
Overcast 9500 ft
Dew Point 68 °F
Humidity 96%
Rainfall 0.00 in
Snow Depth Not available.
7:23 AM 7:20 PM
Waning Crescent, 12% visible
SPECI KCEU 271222Z AUTO 00000KT 10SM BKN024 OVC095 22/19 A3000 RMK AO2 T02170194

10-Day Weather Forecast

Almanac

Astronomy

Sep. 27, 2016 Rise Set
Actual Time
Civil Twilight
Nautical Twilight
Astronomical Twilight
Moon
Length of Visible Light
Length of Day
Tomorrow will be .
, % of the Moon is Illuminated

Today's Extremes

State Highs State Lows

Community

WunderPhotos

Upload Photos

1,942,069 photos uploaded!

WunderBlog® & News

Nearby

Air Quality

  Air Quality AQ Index Pollutant
Not available.

Snow Depth

Station Depth Elevation

Earthquake Activity

City Distance Mag. Time & Date
Minimum magnitude displayed is 2.5.

Coastal Water Temperatures

Place Temperature

Stations

Nearby Weather Stations

Station Location Temp. Windchill Dew Point Humidity Wind Precip. Elev Updated Type
                   

Watches & Warnings

There are currently no watches in effect.